Time;durP1;ratioP1;P1;durP2;ratioP2;P2;SDS_P1;SDS_P2;PMS_P1;PMS_P2;Temp;Humidity;BMP_temperature;BMP_pressure;BME280_temperature;BME280_humidity;BME280_pressure;Samples;Min_cycle;Max_cycle;Signal;HPM_P1;HPM_P2
2022/08/13 00:01:25;;;;;;;6.68;3.05;;;;;;;15.60;88.53;101145.75;4958538;28;20034;-84
2022/08/13 00:03:52;;;;;;;5.35;3.40;;;;;;;15.89;87.99;101170.97;4948622;28;20048;-84
2022/08/13 00:07:07;;;;;;;5.95;2.88;;;;;;;15.94;86.75;101156.81;4972927;28;20041;-85
2022/08/13 00:09:07;;;;;;;4.72;3.10;;;;;;;16.00;86.90;101167.69;4968196;28;20038;-84
2022/08/13 00:14:22;;;;;;;5.35;3.45;;;;;;;15.75;87.18;101137.53;4981649;28;20031;-84
2022/08/13 00:16:48;;;;;;;4.75;3.25;;;;;;;15.79;88.38;101163.19;4984616;28;20046;-84
2022/08/13 00:19:15;;;;;;;6.80;3.45;;;;;;;15.76;88.41;101158.19;4956041;28;20038;-83
2022/08/13 00:21:41;;;;;;;4.88;3.03;;;;;;;15.67;88.79;101145.81;4982522;28;20116;-84
2022/08/13 00:24:07;;;;;;;4.90;3.40;;;;;;;15.68;89.08;101158.31;4967488;28;20464;-85
2022/08/13 00:26:45;;;;;;;5.00;3.33;;;;;;;15.14;89.92;101085.88;4947223;28;20056;-84
2022/08/13 00:29:16;;;;;;;4.45;3.42;;;;;;;15.47;90.73;101151.09;4954016;28;20464;-84
2022/08/13 00:31:46;;;;;;;5.60;3.40;;;;;;;15.35;91.14;101131.84;4951870;28;20034;-84
2022/08/13 00:34:11;;;;;;;5.45;3.00;;;;;;;15.31;91.69;101124.31;4995208;28;20464;-84
2022/08/13 00:36:37;;;;;;;3.28;2.78;;;;;;;15.50;90.63;101139.03;4964587;28;20037;-83
2022/08/13 00:39:08;;;;;;;4.97;3.10;;;;;;;15.58;89.95;101144.28;4971784;28;20120;-84
2022/08/13 00:41:38;;;;;;;5.22;3.15;;;;;;;15.53;89.86;101134.06;4983567;28;20504;-84
2022/08/13 00:44:10;;;;;;;5.20;3.55;;;;;;;15.56;89.43;101139.09;4962722;28;20042;-83
2022/08/13 00:46:38;;;;;;;5.20;3.25;;;;;;;15.55;89.36;101133.84;4980714;28;20037;-83
2022/08/13 00:49:05;;;;;;;5.70;3.58;;;;;;;15.52;89.06;101126.13;4983693;28;20476;-84
2022/08/13 00:51:33;;;;;;;3.88;2.80;;;;;;;15.66;88.53;101132.44;4966219;28;20046;-84
2022/08/13 00:54:00;;;;;;;7.15;3.47;;;;;;;15.69;87.93;101141.06;4962256;28;20046;-84
2022/08/13 00:56:26;;;;;;;3.53;2.88;;;;;;;15.71;87.46;101136.25;4966445;28;20149;-83
2022/08/13 00:58:52;;;;;;;4.85;3.08;;;;;;;15.72;87.26;101137.94;4979612;28;20118;-83
2022/08/13 01:01:25;;;;;;;4.65;3.33;;;;;;;15.51;88.08;101130.72;4981415;28;20149;-84
2022/08/13 01:03:51;;;;;;;5.15;3.53;;;;;;;15.42;88.97;101136.47;4981635;28;20045;-84
2022/08/13 01:06:18;;;;;;;4.70;3.55;;;;;;;15.24;90.24;101145.97;4968812;28;20031;-83
2022/08/13 01:08:44;;;;;;;7.75;3.65;;;;;;;14.89;91.60;101116.06;4964993;28;20125;-84
2022/08/13 01:11:14;;;;;;;4.15;3.28;;;;;;;14.81;93.01;101120.78;4989133;28;20404;-85
2022/08/13 01:13:42;;;;;;;4.90;3.35;;;;;;;14.78;94.02;101140.13;4965125;28;20488;-83
2022/08/13 01:16:14;;;;;;;4.85;3.47;;;;;;;14.72;94.77;101131.75;4981972;28;20026;-83
2022/08/13 01:18:46;;;;;;;5.03;3.50;;;;;;;14.58;95.51;101118.28;4989198;28;20066;-86
2022/08/13 01:21:23;;;;;;;5.30;3.47;;;;;;;14.52;96.42;101123.44;4980836;28;20041;-83
2022/08/13 01:23:51;;;;;;;5.25;3.60;;;;;;;14.52;96.51;101122.56;4963955;28;20507;-86
2022/08/13 01:26:19;;;;;;;5.55;4.22;;;;;;;14.37;96.96;101117.25;4998511;28;20030;-85
2022/08/13 01:28:46;;;;;;;6.65;4.22;;;;;;;14.32;97.55;101110.72;4982246;28;20045;-85
2022/08/13 01:31:14;;;;;;;6.57;4.22;;;;;;;14.21;98.30;101101.22;4983085;28;20073;-85
2022/08/13 01:33:43;;;;;;;6.00;4.03;;;;;;;14.27;99.17;101127.53;4971686;28;20053;-85
2022/08/13 01:36:09;;;;;;;5.25;3.80;;;;;;;14.28;99.96;101123.78;4961291;28;20046;-85
2022/08/13 01:38:36;;;;;;;6.28;4.22;;;;;;;14.28;99.91;101118.38;4988630;28;20137;-85
2022/08/13 01:41:04;;;;;;;6.43;4.32;;;;;;;14.14;100.00;101092.22;4986110;28;20034;-85
2022/08/13 01:43:30;;;;;;;8.68;4.72;;;;;;;14.26;100.00;101105.06;4946445;28;20042;-85
2022/08/13 01:46:00;;;;;;;6.78;4.68;;;;;;;13.79;100.00;101037.97;4988631;28;20037;-84
2022/08/13 01:51:21;;;;;;;7.60;5.20;;;;;;;14.29;100.00;101115.50;4979336;28;20124;-85
2022/08/13 01:53:49;;;;;;;6.32;5.28;;;;;;;14.34;100.00;101095.13;4968713;28;20448;-84
2022/08/13 01:56:21;;;;;;;8.23;6.03;;;;;;;14.48;100.00;101108.59;4986280;28;20091;-84
2022/08/13 01:58:52;;;;;;;7.35;5.57;;;;;;;14.27;100.00;101085.09;4973525;28;20095;-85
2022/08/13 02:01:18;;;;;;;7.63;6.15;;;;;;;14.36;100.00;101104.72;4985589;28;20088;-83
2022/08/13 02:03:49;;;;;;;8.70;5.63;;;;;;;14.35;100.00;101113.03;4982513;28;20034;-84
2022/08/13 02:06:29;;;;;;;7.18;5.75;;;;;;;14.29;100.00;101115.50;4968688;28;20543;-83
2022/08/13 02:08:59;;;;;;;9.95;6.28;;;;;;;14.21;100.00;101112.03;4992674;28;20052;-82
2022/08/13 02:11:29;;;;;;;10.90;6.60;;;;;;;14.02;100.00;101103.50;4977733;28;20026;-82
2022/08/13 02:13:56;;;;;;;8.13;6.07;;;;;;;14.04;100.00;101109.56;4967677;28;21215;-84
2022/08/13 02:16:22;;;;;;;9.52;6.60;;;;;;;13.82;100.00;101072.72;4967691;28;20042;-85
2022/08/13 02:18:49;;;;;;;6.57;5.35;;;;;;;13.94;100.00;101100.91;4975092;28;20387;-85
2022/08/13 02:21:15;;;;;;;9.75;5.80;;;;;;;14.00;100.00;101110.16;4957317;28;20811;-85
2022/08/13 02:23:41;;;;;;;10.23;6.93;;;;;;;14.03;100.00;101112.47;4987016;28;20038;-85
2022/08/13 02:26:07;;;;;;;7.63;6.15;;;;;;;14.12;100.00;101111.31;4979471;28;20124;-83
2022/08/13 02:28:37;;;;;;;8.18;6.15;;;;;;;14.24;100.00;101100.88;4973166;28;20096;-84
2022/08/13 02:31:07;;;;;;;8.25;6.63;;;;;;;14.22;100.00;101092.09;4965958;28;20033;-83
2022/08/13 02:33:37;;;;;;;9.90;5.88;;;;;;;14.42;100.00;101105.81;4985207;28;20375;-83
2022/08/13 02:36:09;;;;;;;9.27;6.32;;;;;;;14.38;100.00;101101.84;4984446;28;20038;-83
2022/08/13 02:38:34;;;;;;;8.15;6.20;;;;;;;14.38;100.00;101096.44;4960578;28;20084;-83
2022/08/13 02:43:46;;;;;;;9.93;6.30;;;;;;;14.30;100.00;101082.00;4969452;28;20038;-83
2022/08/13 02:46:14;;;;;;;8.52;6.32;;;;;;;14.25;100.00;101089.00;4982224;28;20069;-83
2022/08/13 02:48:40;;;;;;;10.10;6.90;;;;;;;14.14;100.00;101094.94;4952128;28;20054;-83
2022/08/13 02:51:05;;;;;;;8.52;5.85;;;;;;;14.02;100.00;101097.28;4987789;28;20058;-83
2022/08/13 02:53:31;;;;;;;10.75;7.18;;;;;;;13.94;100.00;101092.81;4981698;28;20074;-82
2022/08/13 02:55:59;;;;;;;7.80;6.03;;;;;;;13.74;100.00;101083.63;4981763;28;20035;-83
2022/08/13 02:58:26;;;;;;;9.57;7.07;;;;;;;13.59;100.00;101076.38;4978925;28;20100;-83
2022/08/13 03:00:52;;;;;;;10.98;7.15;;;;;;;13.49;100.00;101064.19;4953127;28;20417;-83
2022/08/13 03:03:19;;;;;;;9.95;7.28;;;;;;;13.55;100.00;101085.91;4954729;28;20498;-83
2022/08/13 03:05:45;;;;;;;10.30;7.28;;;;;;;13.27;100.00;101058.69;4978148;28;20670;-83
2022/08/13 03:08:11;;;;;;;12.70;8.00;;;;;;;13.32;100.00;101066.25;4960123;28;20084;-82
2022/08/13 03:10:38;;;;;;;11.15;7.65;;;;;;;13.37;100.00;101074.63;4971893;28;20030;-83
2022/08/13 03:13:08;;;;;;;14.05;8.00;;;;;;;13.26;100.00;101065.13;4980622;28;20384;-83
2022/08/13 03:15:35;;;;;;;10.40;7.85;;;;;;;13.35;100.00;101071.28;4957130;28;20090;-83
2022/08/13 03:18:01;;;;;;;11.85;7.78;;;;;;;13.44;100.00;101072.84;4977138;28;20046;-83
2022/08/13 03:20:26;;;;;;;10.02;7.82;;;;;;;13.52;100.00;101074.59;4963462;28;20042;-83
2022/08/13 03:22:57;;;;;;;11.52;7.43;;;;;;;13.57;100.00;101075.72;4962080;28;20065;-83
2022/08/13 03:25:25;;;;;;;10.27;7.18;;;;;;;13.51;100.00;101064.84;4954135;28;20439;-83
2022/08/13 03:28:05;;;;;;;10.55;7.88;;;;;;;13.52;100.00;101069.19;4951497;28;20038;-82
2022/08/13 03:30:36;;;;;;;9.77;7.38;;;;;;;13.35;100.00;101060.47;4966424;28;20044;-83
2022/08/13 03:33:07;;;;;;;11.45;8.02;;;;;;;13.25;100.00;101051.78;4967461;28;20419;-82
2022/08/13 03:35:35;;;;;;;12.05;7.75;;;;;;;13.22;100.00;101052.97;4969297;28;20100;-83
2022/08/13 03:38:01;;;;;;;15.82;7.95;;;;;;;13.28;100.00;101067.63;4987075;28;20502;-82
2022/08/13 03:41:00;;;;;;;9.88;7.97;;;;;;;13.19;100.00;101069.56;4971242;28;20046;-83
2022/08/13 03:43:16;;;;;;;12.02;7.60;;;;;;;13.09;100.00;101064.41;4981436;28;20046;-83
2022/08/13 03:45:44;;;;;;;9.82;7.18;;;;;;;13.02;100.00;101065.34;4966139;28;20034;-82
2022/08/13 03:48:13;;;;;;;11.70;7.68;;;;;;;12.85;100.00;101046.63;4970279;28;20042;-83
2022/08/13 03:50:43;;;;;;;12.45;7.55;;;;;;;12.77;100.00;101049.41;4982236;28;20041;-82
2022/08/13 03:53:09;;;;;;;10.95;7.65;;;;;;;12.85;100.00;101060.09;4960348;28;20030;-84
2022/08/13 03:55:37;;;;;;;11.63;8.27;;;;;;;12.82;100.00;101057.78;4975756;28;20068;-83
2022/08/13 03:58:05;;;;;;;15.75;8.20;;;;;;;12.69;100.00;101035.97;4962140;28;20046;-83
2022/08/13 04:00:37;;;;;;;11.73;7.70;;;;;;;12.73;100.00;101040.84;4984248;28;20561;-82
2022/08/13 04:03:22;;;;;;;11.50;7.80;;;;;;;12.83;100.00;101064.00;4971467;28;20121;-82
2022/08/13 04:05:58;;;;;;;12.30;7.50;;;;;;;12.83;100.00;101056.75;4955352;28;20027;-83
2022/08/13 04:08:25;;;;;;;11.27;7.68;;;;;;;12.81;100.00;101061.50;4953125;28;20041;-83
2022/08/13 04:10:51;;;;;;;11.43;8.13;;;;;;;12.74;100.00;101058.69;4973594;28;20042;-83
2022/08/13 04:13:17;;;;;;;12.13;7.28;;;;;;;12.67;100.00;101036.16;4972848;28;20037;-83
2022/08/13 04:15:44;;;;;;;12.10;7.40;;;;;;;12.76;100.00;101070.16;4968235;28;20365;-83
2022/08/13 04:18:11;;;;;;;12.75;8.00;;;;;;;12.59;100.00;101038.94;4951661;28;20073;-83
2022/08/13 04:20:39;;;;;;;11.63;8.07;;;;;;;12.70;100.00;101053.84;4981340;28;20034;-82
2022/08/13 04:23:07;;;;;;;12.15;8.25;;;;;;;12.60;100.00;101045.19;4981554;28;20057;-82
2022/08/13 04:25:35;;;;;;;13.20;9.07;;;;;;;12.49;100.00;101038.34;4986536;28;20030;-82
2022/08/13 04:28:01;;;;;;;13.15;7.80;;;;;;;12.57;100.00;101056.31;4954829;28;20034;-82
2022/08/13 04:30:27;;;;;;;10.52;7.50;;;;;;;12.50;100.00;101037.34;4983804;28;20048;-83
2022/08/13 04:32:54;;;;;;;11.27;7.95;;;;;;;12.54;100.00;101046.72;4975967;28;20538;-83
2022/08/13 04:35:19;;;;;;;15.75;8.75;;;;;;;12.61;100.00;101060.34;4981601;28;20041;-83
2022/08/13 04:37:45;;;;;;;14.45;7.93;;;;;;;12.49;100.00;101054.53;4987550;28;20052;-83
2022/08/13 04:40:12;;;;;;;10.38;7.68;;;;;;;12.47;100.00;101059.28;4965441;28;20058;-82
2022/08/13 04:42:50;;;;;;;13.48;8.13;;;;;;;12.39;100.00;101051.25;4981824;28;20034;-82
2022/08/13 04:45:17;;;;;;;12.30;8.10;;;;;;;12.39;100.00;101052.09;4980725;28;20033;-83
2022/08/13 04:47:42;;;;;;;13.45;7.72;;;;;;;12.49;100.00;101052.69;4984383;28;20364;-83
2022/08/13 04:50:11;;;;;;;12.48;8.00;;;;;;;12.52;100.00;101054.19;4982393;28;20157;-83
2022/08/13 04:52:39;;;;;;;14.27;8.05;;;;;;;12.41;100.00;101038.41;4970757;28;20390;-82
2022/08/13 04:55:06;;;;;;;12.15;7.15;;;;;;;12.36;100.00;101035.41;4977310;28;20030;-82
2022/08/13 04:57:33;;;;;;;11.10;7.30;;;;;;;12.30;100.00;101037.84;4970202;28;20045;-82
2022/08/13 05:00:02;;;;;;;12.27;7.32;;;;;;;12.26;100.00;101030.28;4983293;28;20297;-83
2022/08/13 05:02:28;;;;;;;13.73;7.10;;;;;;;12.34;100.00;101049.09;4979496;28;20069;-83
2022/08/13 05:04:54;;;;;;;13.57;7.43;;;;;;;12.23;100.00;101027.94;4981088;28;20144;-82
2022/08/13 05:07:20;;;;;;;11.65;7.47;;;;;;;12.41;100.00;101049.19;4981137;28;20034;-82
2022/08/13 05:09:45;;;;;;;8.82;6.78;;;;;;;12.31;100.00;101028.72;4989941;28;20125;-82
2022/08/13 05:12:14;;;;;;;14.30;7.25;;;;;;;12.30;100.00;101036.97;4948660;28;20037;-83
2022/08/13 05:14:40;;;;;;;10.30;6.80;;;;;;;12.37;100.00;101035.25;4985418;28;20030;-83
2022/08/13 05:17:07;;;;;;;13.38;7.15;;;;;;;12.45;100.00;101037.03;4966216;28;20038;-83
2022/08/13 05:19:33;;;;;;;13.32;7.07;;;;;;;12.48;100.00;101023.19;4967910;28;20038;-83
2022/08/13 05:21:58;;;;;;;10.60;6.68;;;;;;;12.60;100.00;101037.94;4985246;28;20045;-83
2022/08/13 05:24:24;;;;;;;9.48;6.80;;;;;;;12.54;100.00;101036.78;4981158;28;20034;-83
2022/08/13 05:26:50;;;;;;;11.88;6.45;;;;;;;12.54;100.00;101039.50;4986626;28;20092;-84
2022/08/13 05:29:16;;;;;;;14.52;6.68;;;;;;;12.59;100.00;101040.78;4968885;28;20034;-83
2022/08/13 05:31:42;;;;;;;11.02;6.32;;;;;;;12.43;100.00;101012.94;4982692;28;20465;-83
2022/08/13 05:34:07;;;;;;;10.88;6.43;;;;;;;12.47;100.00;101003.47;4980248;28;20684;-83
2022/08/13 05:36:33;;;;;;;13.05;6.65;;;;;;;12.96;100.00;101046.16;4987326;28;20356;-83
2022/08/13 05:38:59;;;;;;;9.60;6.13;;;;;;;13.29;100.00;101047.72;4949006;28;20113;-83
2022/08/13 05:41:28;;;;;;;11.80;6.50;;;;;;;13.31;100.00;101035.72;4978786;28;20106;-83
2022/08/13 05:43:53;;;;;;;9.10;6.07;;;;;;;13.48;100.00;101043.59;4953172;28;20050;-83
2022/08/13 05:46:19;;;;;;;10.23;6.30;;;;;;;13.54;100.00;101048.25;4963844;28;20053;-83
2022/08/13 05:48:56;;;;;;;10.23;6.00;;;;;;;13.52;100.00;101024.13;4959435;28;20066;-83
2022/08/13 05:51:26;;;;;;;10.13;6.00;;;;;;;13.64;100.00;101041.53;4955598;28;20049;-83
2022/08/13 05:53:54;;;;;;;10.30;6.07;;;;;;;13.69;100.00;101046.38;4947976;28;20038;-83
2022/08/13 05:56:24;;;;;;;8.52;6.28;;;;;;;13.82;100.00;101048.41;4966756;28;20587;-83
2022/08/13 05:58:51;;;;;;;8.00;5.70;;;;;;;14.25;100.00;101051.13;4968397;28;20045;-83
2022/08/13 06:04:07;;;;;;;8.57;6.03;;;;;;;14.92;98.03;101036.31;4961947;28;20039;-84
2022/08/13 06:06:33;;;;;;;11.43;5.95;;;;;;;14.86;97.27;101040.66;4985706;28;20035;-83
2022/08/13 06:08:59;;;;;;;7.90;5.45;;;;;;;14.73;97.03;101041.41;4990153;28;20077;-83
2022/08/13 06:11:27;;;;;;;15.95;5.85;;;;;;;14.62;97.52;101041.94;4971021;28;20473;-83
2022/08/13 06:13:53;;;;;;;8.43;5.90;;;;;;;14.46;97.36;101021.38;4949841;28;20034;-84
2022/08/13 06:16:20;;;;;;;7.88;5.47;;;;;;;14.62;97.27;101044.66;4988377;28;20100;-83
2022/08/13 06:18:49;;;;;;;13.27;6.85;;;;;;;14.66;96.75;101040.53;4995222;28;20480;-84
2022/08/13 06:21:17;;;;;;;9.57;5.32;;;;;;;14.72;96.25;101033.50;4970520;28;20101;-83
2022/08/13 06:23:48;;;;;;;8.63;4.95;;;;;;;14.84;95.52;101034.59;4969038;28;20069;-83
2022/08/13 06:26:15;;;;;;;9.32;5.18;;;;;;;15.01;94.92;101037.03;4971105;28;20046;-83
2022/08/13 06:28:44;;;;;;;7.07;4.75;;;;;;;15.13;94.05;101036.25;4968480;28;20417;-84
2022/08/13 06:31:13;;;;;;;6.25;4.28;;;;;;;15.26;92.56;101024.66;4957487;28;20084;-84
2022/08/13 06:33:40;;;;;;;8.23;5.53;;;;;;;15.53;90.88;101030.22;5000967;28;20042;-83
2022/08/13 06:36:15;;;;;;;8.25;4.95;;;;;;;15.67;89.78;101026.53;4975350;28;20042;-85
2022/08/13 06:38:47;;;;;;;9.02;4.90;;;;;;;15.81;88.66;101035.56;4986019;28;20034;-83
2022/08/13 06:41:13;;;;;;;7.20;4.47;;;;;;;15.95;87.91;101033.72;4963795;28;20038;-84
2022/08/13 06:43:42;;;;;;;11.80;5.38;;;;;;;15.99;86.89;101016.84;4963796;28;20026;-84
2022/08/13 06:46:15;;;;;;;7.28;4.80;;;;;;;15.82;86.10;100975.75;4957027;28;20030;-84
2022/08/13 06:49:11;;;;;;;8.40;4.63;;;;;;;16.33;85.63;101035.91;4994388;28;20034;-84
2022/08/13 06:51:37;;;;;;;7.80;5.00;;;;;;;16.26;84.66;100995.19;4974139;28;20037;-84
2022/08/13 06:54:08;;;;;;;7.32;4.72;;;;;;;16.64;84.02;101038.81;4992597;28;20116;-83
2022/08/13 06:56:34;;;;;;;8.23;4.57;;;;;;;16.82;82.86;101024.66;4985510;28;20049;-84
2022/08/13 06:59:00;;;;;;;9.63;5.05;;;;;;;17.04;82.06;101032.56;4954181;28;20034;-83
2022/08/13 07:01:27;;;;;;;9.70;5.28;;;;;;;17.23;80.76;101030.88;4956035;28;20045;-84
2022/08/13 07:04:00;;;;;;;8.52;4.93;;;;;;;17.38;79.77;101022.44;4972857;28;20068;-84
2022/08/13 07:06:28;;;;;;;7.07;4.65;;;;;;;17.53;77.65;101017.59;4968501;28;20038;-83
2022/08/13 07:08:58;;;;;;;8.85;4.88;;;;;;;18.39;74.05;101008.94;4971507;28;20048;-83
2022/08/13 07:11:27;;;;;;;5.00;3.30;;;;;;;20.67;65.95;101029.72;4972106;28;20042;-84
2022/08/13 07:13:55;;;;;;;7.05;5.20;;;;;;;22.27;58.35;101025.47;4972722;28;20035;-85
2022/08/13 07:16:22;;;;;;;6.28;4.10;;;;;;;23.44;53.84;101036.59;4986251;28;20034;-84
2022/08/13 07:18:49;;;;;;;6.07;4.55;;;;;;;24.18;50.53;101027.84;4982650;28;20041;-84
2022/08/13 07:21:19;;;;;;;5.57;4.35;;;;;;;24.85;48.05;101031.16;4973386;28;20033;-84
2022/08/13 07:23:48;;;;;;;7.30;4.63;;;;;;;25.39;46.37;101033.72;4960012;28;20504;-84
2022/08/13 07:26:19;;;;;;;5.20;4.07;;;;;;;25.85;45.18;101036.66;4974225;28;20440;-84
2022/08/13 07:28:49;;;;;;;6.63;4.35;;;;;;;26.09;43.88;101003.94;4975203;28;20030;-84
2022/08/13 07:31:25;;;;;;;6.20;4.63;;;;;;;26.56;42.90;101029.63;4973022;28;20496;-83
2022/08/13 07:33:53;;;;;;;7.75;4.25;;;;;;;26.83;42.20;101015.53;4950888;28;20116;-86
2022/08/13 07:36:20;;;;;;;6.90;4.18;;;;;;;27.05;40.94;101023.50;4968802;28;20027;-85
2022/08/13 07:38:47;;;;;;;6.53;4.25;;;;;;;27.33;40.82;101027.56;4954535;28;20129;-85
2022/08/13 07:41:14;;;;;;;4.55;3.60;;;;;;;27.56;40.29;101031.63;4988826;28;20600;-85
2022/08/13 07:43:46;;;;;;;6.10;3.90;;;;;;;27.71;40.52;101011.41;4988145;28;20488;-85
2022/08/13 07:46:15;;;;;;;4.95;3.55;;;;;;;28.14;38.93;101033.81;4983314;28;20041;-85
2022/08/13 07:48:49;;;;;;;6.55;3.97;;;;;;;27.98;38.44;101031.16;4990587;28;20034;-85
2022/08/13 07:51:19;;;;;;;5.13;3.90;;;;;;;27.96;38.34;101024.25;4981499;28;20030;-85
2022/08/13 07:53:47;;;;;;;5.35;4.50;;;;;;;27.86;38.76;101024.31;4962661;28;20046;-85
2022/08/13 07:56:18;;;;;;;4.30;3.63;;;;;;;28.08;38.10;101027.50;4984466;28;20120;-84
2022/08/13 07:58:44;;;;;;;5.35;3.92;;;;;;;28.42;38.69;101029.44;4970828;28;20038;-84
2022/08/13 08:01:11;;;;;;;4.75;3.53;;;;;;;28.74;37.74;101020.66;4954320;28;20454;-85
2022/08/13 08:03:41;;;;;;;4.57;3.33;;;;;;;28.94;37.19;101039.78;4961449;28;20038;-84
2022/08/13 08:06:14;;;;;;;5.47;4.13;;;;;;;29.23;36.94;101041.72;4978191;28;20034;-85
2022/08/13 08:08:42;;;;;;;5.13;3.63;;;;;;;29.84;35.23;101023.53;4980055;28;20085;-84
2022/08/13 08:11:10;;;;;;;5.20;3.72;;;;;;;30.27;35.19;101025.41;4988137;28;20476;-85
2022/08/13 08:13:36;;;;;;;6.57;4.30;;;;;;;30.77;34.77;101032.03;4989376;28;20400;-84
2022/08/13 08:16:04;;;;;;;4.93;3.78;;;;;;;30.93;33.87;101026.25;4969255;28;20035;-84
2022/08/13 08:18:30;;;;;;;4.43;3.40;;;;;;;30.86;32.98;101015.56;4954860;28;20088;-85
2022/08/13 08:21:07;;;;;;;6.38;3.90;;;;;;;30.56;33.41;101011.34;4980632;28;20066;-84
2022/08/13 08:23:35;;;;;;;7.80;4.07;;;;;;;30.70;34.43;101023.31;4964235;28;20038;-84
2022/08/13 08:26:07;;;;;;;5.75;3.88;;;;;;;30.68;33.88;101029.16;4965192;28;20097;-84
2022/08/13 08:28:34;;;;;;;7.88;3.58;;;;;;;31.01;33.61;101034.69;4984036;28;20398;-85
2022/08/13 08:31:01;;;;;;;4.93;3.67;;;;;;;31.23;34.03;101020.09;4984509;28;20061;-84
2022/08/13 08:33:27;;;;;;;7.55;3.80;;;;;;;31.75;33.35;101025.41;4971306;28;20068;-84
2022/08/13 08:35:56;;;;;;;4.95;3.75;;;;;;;31.95;32.60;101022.19;4965628;28;20038;-85
2022/08/13 08:43:53;;;;;;;4.10;3.70;;;;;;;33.12;31.17;101028.72;4991225;28;20571;-85
2022/08/13 08:46:21;;;;;;;5.70;4.03;;;;;;;33.47;29.99;101028.84;4954226;28;22042;-85
2022/08/13 08:48:47;;;;;;;4.20;3.60;;;;;;;33.14;30.86;101025.63;4984013;28;20030;-86
2022/08/13 08:51:13;;;;;;;4.13;3.13;;;;;;;33.44;30.83;101032.28;4968315;28;20034;-85
2022/08/13 08:53:44;;;;;;;7.18;3.70;;;;;;;33.53;30.31;101032.28;4987904;28;20101;-85
2022/08/13 08:56:11;;;;;;;6.90;3.92;;;;;;;33.45;30.62;101028.34;4985668;28;20031;-85
2022/08/13 08:58:42;;;;;;;4.20;3.17;;;;;;;33.49;30.98;100984.75;4977910;28;20403;-86
2022/08/13 09:01:12;;;;;;;5.73;3.67;;;;;;;33.90;30.26;101025.34;4922709;28;20492;-85
2022/08/13 09:03:40;;;;;;;4.15;3.20;;;;;;;34.05;30.32;101022.03;4937335;28;20034;-85
2022/08/13 09:06:08;;;;;;;5.05;3.60;;;;;;;34.57;28.98;101024.84;4937508;28;20034;-84
2022/08/13 09:08:36;;;;;;;7.78;3.92;;;;;;;34.39;29.09;101020.41;4968414;28;20033;-85
2022/08/13 09:11:02;;;;;;;3.83;3.42;;;;;;;34.09;30.04;101020.28;4970686;28;20037;-85
2022/08/13 09:13:28;;;;;;;8.48;3.70;;;;;;;34.48;29.64;101006.44;4970307;28;20432;-83
2022/08/13 09:15:57;;;;;;;5.28;3.47;;;;;;;35.33;28.85;101028.88;4988391;28;20027;-84
2022/08/13 09:18:23;;;;;;;3.50;3.20;;;;;;;36.11;27.80;101027.53;4948321;28;20045;-83
2022/08/13 09:20:50;;;;;;;3.60;3.08;;;;;;;36.25;27.60;101016.84;4987361;28;20066;-83
2022/08/13 09:23:16;;;;;;;5.40;3.42;;;;;;;35.52;28.43;101002.44;4948405;28;20399;-82
2022/08/13 09:25:51;;;;;;;7.00;3.88;;;;;;;35.43;28.32;101022.91;4959405;28;20210;-84
2022/08/13 09:28:23;;;;;;;3.47;3.17;;;;;;;35.41;28.91;101019.59;4937318;28;20046;-83
2022/08/13 09:30:51;;;;;;;3.70;3.40;;;;;;;34.94;28.34;101019.63;4949820;28;20045;-83
2022/08/13 09:33:19;;;;;;;4.60;3.30;;;;;;;34.78;28.80;101015.75;4959391;28;20156;-82
2022/08/13 09:35:46;;;;;;;5.68;3.80;;;;;;;34.87;29.81;101018.50;4947434;28;21699;-83
2022/08/13 09:38:12;;;;;;;4.15;3.75;;;;;;;34.69;29.95;101021.34;4953054;28;20265;-83
2022/08/13 09:40:44;;;;;;;4.38;3.33;;;;;;;35.03;28.99;101012.03;4980240;28;21864;-82
2022/08/13 09:43:10;;;;;;;;;;;;;;;35.20;29.64;101015.94;4951584;28;20538;-82
2022/08/13 09:45:38;;;;;;;3.90;3.60;;;;;;;35.54;29.63;101012.13;4958821;28;19984;-83
2022/08/13 09:48:08;;;;;;;4.80;3.53;;;;;;;35.81;29.12;101012.78;4959980;28;20045;-81
2022/08/13 09:50:35;;;;;;;5.05;3.63;;;;;;;35.87;28.48;101008.63;4928837;28;20034;-81
2022/08/13 09:53:01;;;;;;;4.10;3.38;;;;;;;35.83;28.73;101005.69;4945622;28;20177;-81
2022/08/13 09:55:27;;;;;;;6.20;3.63;;;;;;;36.00;28.24;101001.09;4961001;28;20034;-81
2022/08/13 09:57:59;;;;;;;4.97;3.60;;;;;;;35.69;28.41;100982.75;4942092;28;20030;-81
2022/08/13 10:00:27;;;;;;;;;;;;;;;35.82;28.06;101006.03;4961198;28;20185;-81
2022/08/13 10:03:03;;;;;;;4.15;3.65;;;;;;;35.78;28.47;100996.66;4957334;28;20620;-81
2022/08/13 10:05:34;;;;;;;5.95;3.67;;;;;;;36.27;27.33;101002.53;4939762;28;20053;-81
2022/08/13 10:08:05;;;;;;;4.20;3.80;;;;;;;36.09;27.54;101001.88;4930307;28;20035;-84
2022/08/13 10:10:42;;;;;;;8.73;3.80;;;;;;;35.86;28.44;100999.41;4922445;28;20046;-82
2022/08/13 10:13:17;;;;;;;4.63;3.70;;;;;;;36.20;28.10;100996.66;4939161;28;20046;-81
2022/08/13 10:15:43;;;;;;;5.18;3.70;;;;;;;36.37;27.52;100998.47;4927103;28;20066;-82
2022/08/13 10:18:09;;;;;;;3.97;3.58;;;;;;;36.34;27.00;100990.78;4972750;28;20113;-82
2022/08/13 10:20:40;;;;;;;3.90;3.10;;;;;;;35.93;27.59;100990.44;4939991;28;20038;-82
2022/08/13 10:23:08;;;;;;;4.80;3.35;;;;;;;35.82;28.55;100986.44;4983757;28;20042;-83
2022/08/13 10:25:35;;;;;;;5.28;3.65;;;;;;;36.22;26.95;100978.34;4971480;28;20038;-83
2022/08/13 10:28:13;;;;;;;5.10;3.90;;;;;;;36.07;27.61;100991.03;4980341;28;20094;-85
2022/08/13 10:30:42;;;;;;;4.38;3.92;;;;;;;36.01;27.68;100983.16;4962378;28;20096;-83
2022/08/13 10:33:14;;;;;;;4.07;3.70;;;;;;;36.06;27.72;100969.78;4956688;28;20045;-84
2022/08/13 10:35:40;;;;;;;5.70;4.97;;;;;;;36.44;27.39;100970.72;4950223;28;20038;-84
2022/08/13 10:38:08;;;;;;;4.35;3.67;;;;;;;36.44;26.37;100965.13;4943556;28;20031;-81
2022/08/13 10:40:34;;;;;;;5.88;3.85;;;;;;;36.68;27.27;100979.22;4964887;28;20070;-81
2022/08/13 10:43:00;;;;;;;4.20;3.80;;;;;;;36.52;25.88;100958.63;4978432;28;20113;-83
2022/08/13 10:45:27;;;;;;;5.82;4.00;;;;;;;36.34;26.91;100957.19;4974110;28;20042;-81
2022/08/13 10:47:57;;;;;;;5.07;3.67;;;;;;;36.40;26.67;100962.19;4965371;28;20043;-83
2022/08/13 10:50:30;;;;;;;4.93;3.67;;;;;;;36.70;26.21;100965.66;4976985;28;20054;-83
2022/08/13 10:52:59;;;;;;;4.65;4.22;;;;;;;36.51;26.43;100968.16;4950489;28;20046;-82
2022/08/13 10:55:26;;;;;;;5.13;4.28;;;;;;;36.28;26.09;100957.41;4956844;28;20026;-82
2022/08/13 10:57:53;;;;;;;4.22;3.83;;;;;;;36.59;26.62;100969.28;4983146;28;20051;-84
2022/08/13 11:00:22;;;;;;;5.88;4.78;;;;;;;36.91;26.64;100953.53;4982762;28;20399;-82
2022/08/13 11:02:50;;;;;;;7.18;5.47;;;;;;;37.39;25.13;100963.94;4957475;28;20062;-82
2022/08/13 11:05:26;;;;;;;8.68;5.28;;;;;;;37.72;25.41;100959.31;4988630;28;20037;-82
2022/08/13 11:07:53;;;;;;;4.82;4.30;;;;;;;38.03;25.10;100953.84;4959437;28;20046;-82
2022/08/13 11:10:20;;;;;;;4.13;3.72;;;;;;;38.18;23.20;100937.38;4953062;28;20045;-82
2022/08/13 11:12:50;;;;;;;4.95;3.60;;;;;;;37.76;24.79;100937.78;4953113;28;20050;-82
2022/08/13 11:15:21;;;;;;;6.13;3.92;;;;;;;37.69;25.75;100954.44;4985625;28;20030;-82
2022/08/13 11:17:48;;;;;;;4.82;3.60;;;;;;;37.75;25.44;100936.16;4954221;28;20499;-82
2022/08/13 11:20:17;;;;;;;7.38;4.63;;;;;;;38.29;25.48;100949.72;4986016;28;20092;-82
2022/08/13 11:22:43;;;;;;;6.07;4.53;;;;;;;38.50;24.78;100935.44;4976264;28;20034;-81
2022/08/13 11:25:09;;;;;;;7.22;4.50;;;;;;;38.86;24.22;100939.97;4969416;28;20058;-83
2022/08/13 11:27:35;;;;;;;4.47;4.03;;;;;;;39.36;23.28;100934.78;4983167;28;20055;-82
2022/08/13 11:30:01;;;;;;;4.50;4.07;;;;;;;39.34;23.87;100937.94;4981393;28;20037;-83
2022/08/13 11:32:27;;;;;;;5.63;4.55;;;;;;;39.09;23.75;100923.28;4959725;28;20033;-82
2022/08/13 11:34:53;;;;;;;5.55;3.67;;;;;;;39.28;23.53;100928.13;4985999;28;20034;-82
2022/08/13 11:37:18;;;;;;;7.05;3.97;;;;;;;39.64;23.51;100928.13;4987277;28;20030;-80
2022/08/13 11:39:44;;;;;;;4.07;3.67;;;;;;;39.86;22.78;100904.88;4953187;28;20030;-81
2022/08/13 11:42:09;;;;;;;4.25;3.83;;;;;;;40.02;22.98;100930.13;4963087;28;20469;-81
2022/08/13 11:44:35;;;;;;;3.95;3.55;;;;;;;39.63;23.39;100916.03;4984021;28;20030;-82